Tuesday, January 16, 2018, 11:52 AM GMT
Back to Local

CWTN, Cap Tourmente

Location: , , Canada Lat: 47.067
Local Time: 11:52 AM GMT (11:52 GMT) Lon: -70.8
Time Zone: GMT Elev: 19 ft

Show me the last for .
Show Coded

Time T Td Feel RH Dir Speed Gust Alt SLP Vis Weather Sky Remarks
2018-01-16 11:00 7 0 -6 73 10° 8 - - 30.56 0 None
2018-01-16 10:00 7 1 -6 74 10° 8 - - 30.58 0 None
2018-01-16 09:00 8 2 0 74 20° 5 - - 30.61 0 None
2018-01-16 08:00 8 2 - 73 10° 2 - - 30.63 0 None
2018-01-16 07:00 9 4 0 81 30° 5 - - 30.64 0 None
2018-01-16 06:00 9 4 -2 78 70° 7 - - 30.65 0 None
2018-01-16 05:00 8 2 -1 76 360° 5 - - 30.69 0 None
2018-01-16 04:00 9 3 -3 76 20° 8 - - 30.72 0 None
2018-01-16 03:00 8 3 -3 76 20° 7 - - 30.74 0 None
2018-01-16 02:00 8 4 0 83 10° 5 - - 30.75 0 None
2018-01-16 01:00 8 2 -2 75 40° 6 - - 30.78 0 None
2018-01-16 00:00 7 1 0 75 360° 3 - - 30.80 0 None
2018-01-15 23:00 6 -2 -12 68 50° 7 17 - 30.81 0 None
2018-01-15 22:00 8 -1 - 68 350° 2 - - 30.82 0 None
2018-01-15 21:00 8 -1 -3 67 110° 7 - - 30.81 0 None
2018-01-15 20:00 8 0 -6 67 110° 10 - - 30.81 0 Peak wind: 19 mph (17 kts) from 110° at 28 min
2018-01-15 19:00 8 -1 -11 67 90° 12 18 - 30.84 0 Peak wind: 23 mph (20 kts) from 120° at 35 min
2018-01-15 18:00 7 0 -13 72 90° 13 20 - 30.87 0 Peak wind: 26 mph (23 kts) from 80° at 04 min
2018-01-15 17:00 6 0 -16 76 80° 14 23 - 30.90 0 Peak wind: 25 mph (22 kts) from 80° at 27 min
2018-01-15 16:00 6 0 -15 75 90° 13 20 - 30.92 0 Peak wind: 19 mph (17 kts) from 80° at 00 min
2018-01-15 15:00 4 -2 -5 73 30° 5 - - 30.94 0 None
2018-01-15 14:00 0 -3 -10 87 360° 5 - - 30.97 0 None
2018-01-15 13:00 -5 -8 - 84 350° 2 - - 30.96 0 None
2018-01-15 12:00 -7 -10 - 83 320° 1 - - 30.97 0 None

Support USWX by starting your Amazon purchase here.